EJU7598 GVSV-LPPT
Flight info
| Callsign | EJU7598 |
|---|---|
| Flight time | 3h 46m |
| Altitude | 35000 |
| Route | NEMDO1U NEMDO UW43 IPERA N873 LIMAL DCT UDATI DCT ODEGI DCT LOMAS DCT GDV DCT VASTO DCT BAROK DCT VATZI |
| Aircraft | A320/M-SDE2E3FGHIJ1RWXYZ/LB1 |
Departure
| Time | 2026-03-23 08:09 |
|---|---|
| Airport | Cesaria Evora International Airport (GVSV) |
Arrival
| Time | 2026-03-23 11:55 |
|---|---|
| Airport | Lisbon Humberto Delgado Airport (LPPT) |
| Time | Latitude | Longitude | Altitude | Speed | Heading |
|---|---|---|---|---|---|
| 2026-03-23 07:50 | 16.83511 | -25.05612 | 72 ft | 0 kts | 143° |
| 2026-03-23 08:02 | 16.83511 | -25.05611 | 71 ft | 0 kts | 143° |
| 2026-03-23 08:02 | 16.83498 | -25.05601 | 71 ft | 4 kts | 143° |
| 2026-03-23 08:03 | 16.83449 | -25.05601 | 71 ft | 10 kts | 217° |
| 2026-03-23 08:03 | 16.83398 | -25.05672 | 71 ft | 12 kts | 236° |
| 2026-03-23 08:03 | 16.83349 | -25.05752 | 71 ft | 13 kts | 237° |
| 2026-03-23 08:03 | 16.83297 | -25.05837 | 71 ft | 14 kts | 238° |
| 2026-03-23 08:04 | 16.83244 | -25.05928 | 71 ft | 14 kts | 237° |
| 2026-03-23 08:04 | 16.83188 | -25.06018 | 71 ft | 14 kts | 237° |
| 2026-03-23 08:04 | 16.83130 | -25.06111 | 71 ft | 15 kts | 237° |
| 2026-03-23 08:04 | 16.83074 | -25.06205 | 71 ft | 15 kts | 238° |
| 2026-03-23 08:05 | 16.83017 | -25.06298 | 71 ft | 15 kts | 237° |
| 2026-03-23 08:05 | 16.82935 | -25.06364 | 71 ft | 15 kts | 193° |
| 2026-03-23 08:05 | 16.82872 | -25.06354 | 71 ft | 0 kts | 154° |
| 2026-03-23 08:07 | 16.82870 | -25.06354 | 71 ft | 1 kts | 154° |
| 2026-03-23 08:07 | 16.82836 | -25.06325 | 71 ft | 11 kts | 129° |
| 2026-03-23 08:08 | 16.82832 | -25.06226 | 71 ft | 15 kts | 59° |
| 2026-03-23 08:08 | 16.82853 | -25.06194 | 71 ft | 0 kts | 52° |
| 2026-03-23 08:08 | 16.82913 | -25.06112 | 72 ft | 44 kts | 53° |
| 2026-03-23 08:08 | 16.83240 | -25.05649 | 72 ft | 111 kts | 53° |
| 2026-03-23 08:09 | 16.83809 | -25.04842 | 180 ft | 153 kts | 54° |
| 2026-03-23 08:09 | 16.84417 | -25.03952 | 742 ft | 153 kts | 53° |
| 2026-03-23 08:09 | 16.85044 | -25.03059 | 1311 ft | 156 kts | 52° |
| 2026-03-23 08:09 | 16.85703 | -25.02151 | 1908 ft | 157 kts | 53° |
| 2026-03-23 08:10 | 16.86352 | -25.01250 | 2452 ft | 157 kts | 53° |
| 2026-03-23 08:10 | 16.87002 | -25.00342 | 2955 ft | 158 kts | 52° |
| 2026-03-23 08:10 | 16.87651 | -24.99438 | 3489 ft | 158 kts | 53° |
| 2026-03-23 08:10 | 16.88344 | -24.98465 | 3792 ft | 175 kts | 53° |
| 2026-03-23 08:11 | 16.89111 | -24.97385 | 4087 ft | 194 kts | 53° |
| 2026-03-23 08:11 | 16.89948 | -24.96209 | 4470 ft | 209 kts | 53° |
| 2026-03-23 08:11 | 16.90866 | -24.94917 | 4748 ft | 231 kts | 53° |
| 2026-03-23 08:11 | 16.91885 | -24.93481 | 5142 ft | 250 kts | 53° |
| 2026-03-23 08:12 | 16.92986 | -24.91986 | 5597 ft | 265 kts | 49° |
| 2026-03-23 08:12 | 16.94313 | -24.90609 | 6298 ft | 270 kts | 40° |
| 2026-03-23 08:12 | 16.95805 | -24.89395 | 7065 ft | 272 kts | 37° |
| 2026-03-23 08:12 | 16.97346 | -24.88201 | 7807 ft | 275 kts | 37° |
| 2026-03-23 08:13 | 16.98922 | -24.86991 | 8538 ft | 278 kts | 37° |
| 2026-03-23 08:13 | 17.00514 | -24.85768 | 9256 ft | 281 kts | 37° |
| 2026-03-23 08:13 | 17.02149 | -24.84507 | 9975 ft | 284 kts | 37° |
| 2026-03-23 08:13 | 17.03763 | -24.83260 | 10536 ft | 292 kts | 37° |
| 2026-03-23 08:14 | 17.05524 | -24.81897 | 10850 ft | 310 kts | 37° |
| 2026-03-23 08:14 | 17.07371 | -24.80468 | 11308 ft | 320 kts | 37° |
| 2026-03-23 08:14 | 17.09180 | -24.79059 | 11942 ft | 324 kts | 36° |
| 2026-03-23 08:14 | 17.10984 | -24.77660 | 12556 ft | 327 kts | 36° |
| 2026-03-23 08:15 | 17.12802 | -24.76252 | 13181 ft | 330 kts | 35° |
| 2026-03-23 08:15 | 17.14654 | -24.74817 | 13801 ft | 332 kts | 35° |
| 2026-03-23 08:15 | 17.16500 | -24.73386 | 14398 ft | 334 kts | 35° |
| 2026-03-23 08:15 | 17.18369 | -24.71937 | 14980 ft | 337 kts | 34° |
| 2026-03-23 08:16 | 17.20245 | -24.70481 | 15545 ft | 339 kts | 34° |
| 2026-03-23 08:16 | 17.22135 | -24.69015 | 16096 ft | 342 kts | 34° |
| 2026-03-23 08:16 | 17.24042 | -24.67535 | 16633 ft | 344 kts | 34° |
| 2026-03-23 08:16 | 17.25984 | -24.66028 | 17161 ft | 347 kts | 34° |
| 2026-03-23 08:17 | 17.27920 | -24.64525 | 17670 ft | 349 kts | 33° |
| 2026-03-23 08:17 | 17.29869 | -24.63011 | 18165 ft | 352 kts | 33° |
| 2026-03-23 08:17 | 17.31807 | -24.61506 | 18641 ft | 354 kts | 33° |
| 2026-03-23 08:17 | 17.33807 | -24.59951 | 19115 ft | 357 kts | 33° |
| 2026-03-23 08:18 | 17.35774 | -24.58423 | 19569 ft | 359 kts | 33° |
| 2026-03-23 08:18 | 17.37779 | -24.56863 | 20017 ft | 362 kts | 33° |
| 2026-03-23 08:18 | 17.39801 | -24.55291 | 20457 ft | 364 kts | 33° |
| 2026-03-23 08:18 | 17.41829 | -24.53713 | 20886 ft | 367 kts | 32° |
| 2026-03-23 08:19 | 17.43875 | -24.52121 | 21307 ft | 369 kts | 32° |
| 2026-03-23 08:19 | 17.45939 | -24.50514 | 21720 ft | 372 kts | 32° |
| 2026-03-23 08:19 | 17.48041 | -24.48878 | 22128 ft | 374 kts | 32° |
| 2026-03-23 08:19 | 17.50128 | -24.47253 | 22521 ft | 377 kts | 32° |
| 2026-03-23 08:20 | 17.52228 | -24.45616 | 22904 ft | 379 kts | 32° |
| 2026-03-23 08:20 | 17.54350 | -24.43963 | 23281 ft | 382 kts | 32° |
| 2026-03-23 08:20 | 17.56477 | -24.42305 | 23648 ft | 385 kts | 32° |
| 2026-03-23 08:20 | 17.58602 | -24.40648 | 24004 ft | 387 kts | 31° |
| 2026-03-23 08:21 | 17.60772 | -24.38956 | 24358 ft | 389 kts | 31° |
| 2026-03-23 08:21 | 17.62956 | -24.37252 | 24704 ft | 392 kts | 31° |
| 2026-03-23 08:21 | 17.65145 | -24.35543 | 25041 ft | 394 kts | 31° |
| 2026-03-23 08:21 | 17.67332 | -24.33836 | 25362 ft | 397 kts | 31° |
| 2026-03-23 08:22 | 17.69536 | -24.32073 | 25667 ft | 402 kts | 35° |
| 2026-03-23 08:22 | 17.71539 | -24.29994 | 25955 ft | 410 kts | 45° |
| 2026-03-23 08:22 | 17.73214 | -24.27556 | 26246 ft | 419 kts | 54° |
| 2026-03-23 08:22 | 17.74624 | -24.24865 | 26544 ft | 423 kts | 57° |
| 2026-03-23 08:23 | 17.75961 | -24.22139 | 26816 ft | 426 kts | 58° |
| 2026-03-23 08:23 | 17.77316 | -24.19349 | 27084 ft | 429 kts | 58° |
| 2026-03-23 08:23 | 17.78680 | -24.16554 | 27349 ft | 431 kts | 58° |
| 2026-03-23 08:23 | 17.80037 | -24.13789 | 27606 ft | 433 kts | 57° |
| 2026-03-23 08:24 | 17.81424 | -24.10973 | 27859 ft | 436 kts | 57° |
| 2026-03-23 08:24 | 17.82819 | -24.08146 | 28107 ft | 438 kts | 57° |
| 2026-03-23 08:24 | 17.84220 | -24.05310 | 28349 ft | 440 kts | 57° |
| 2026-03-23 08:24 | 17.85630 | -24.02457 | 28585 ft | 442 kts | 57° |
| 2026-03-23 08:25 | 17.87054 | -23.99577 | 28818 ft | 445 kts | 57° |
| 2026-03-23 08:25 | 17.88462 | -23.96725 | 29042 ft | 447 kts | 57° |
| 2026-03-23 08:25 | 17.89896 | -23.93821 | 29267 ft | 449 kts | 57° |
| 2026-03-23 08:25 | 17.91329 | -23.90918 | 29480 ft | 451 kts | 57° |
| 2026-03-23 08:26 | 17.92775 | -23.87988 | 29692 ft | 453 kts | 57° |
| 2026-03-23 08:26 | 17.94220 | -23.85059 | 29923 ft | 454 kts | 57° |
| 2026-03-23 08:26 | 17.95668 | -23.82119 | 30144 ft | 456 kts | 57° |
| 2026-03-23 08:26 | 17.97140 | -23.79132 | 30347 ft | 458 kts | 57° |
| 2026-03-23 08:27 | 17.98602 | -23.76164 | 30540 ft | 460 kts | 57° |
| 2026-03-23 08:27 | 18.00065 | -23.73192 | 30729 ft | 462 kts | 57° |
| 2026-03-23 08:27 | 18.01534 | -23.70207 | 30914 ft | 464 kts | 57° |
| 2026-03-23 08:27 | 18.03008 | -23.67210 | 31095 ft | 466 kts | 57° |
| 2026-03-23 08:28 | 18.04492 | -23.64192 | 31273 ft | 467 kts | 57° |
| 2026-03-23 08:28 | 18.06000 | -23.61124 | 31449 ft | 469 kts | 57° |
| 2026-03-23 08:28 | 18.07490 | -23.58089 | 31618 ft | 471 kts | 57° |
| 2026-03-23 08:28 | 18.08988 | -23.55036 | 31785 ft | 473 kts | 57° |
| 2026-03-23 08:29 | 18.10509 | -23.51976 | 31948 ft | 473 kts | 56° |
| 2026-03-23 08:29 | 18.12153 | -23.49003 | 32138 ft | 472 kts | 52° |
| 2026-03-23 08:29 | 18.13948 | -23.46157 | 32331 ft | 470 kts | 48° |
| 2026-03-23 08:29 | 18.15898 | -23.43437 | 32507 ft | 468 kts | 44° |
| 2026-03-23 08:30 | 18.18023 | -23.40824 | 32708 ft | 465 kts | 41° |
| 2026-03-23 08:30 | 18.20241 | -23.38408 | 32919 ft | 462 kts | 37° |
| 2026-03-23 08:30 | 18.22591 | -23.36133 | 33128 ft | 459 kts | 34° |
| 2026-03-23 08:30 | 18.24977 | -23.33923 | 33303 ft | 461 kts | 35° |
| 2026-03-23 08:31 | 18.27319 | -23.31585 | 33426 ft | 465 kts | 38° |
| 2026-03-23 08:31 | 18.29533 | -23.29108 | 33559 ft | 469 kts | 42° |
| 2026-03-23 08:31 | 18.31685 | -23.26520 | 33711 ft | 470 kts | 43° |
| 2026-03-23 08:31 | 18.33814 | -23.23913 | 33857 ft | 471 kts | 43° |
| 2026-03-23 08:32 | 18.35919 | -23.21323 | 33990 ft | 472 kts | 43° |
| 2026-03-23 08:32 | 18.38053 | -23.18695 | 34119 ft | 473 kts | 43° |
| 2026-03-23 08:32 | 18.40195 | -23.16059 | 34250 ft | 473 kts | 43° |
| 2026-03-23 08:32 | 18.42311 | -23.13455 | 34380 ft | 474 kts | 43° |
| 2026-03-23 08:33 | 18.44457 | -23.10816 | 34507 ft | 474 kts | 43° |
| 2026-03-23 08:33 | 18.46608 | -23.08169 | 34630 ft | 474 kts | 43° |
| 2026-03-23 08:33 | 18.48741 | -23.05543 | 34748 ft | 475 kts | 43° |
| 2026-03-23 08:34 | 18.53026 | -23.00268 | 34974 ft | 476 kts | 43° |
| 2026-03-23 08:34 | 18.55159 | -22.97640 | 34994 ft | 477 kts | 43° |
| 2026-03-23 08:34 | 18.59456 | -22.92343 | 34998 ft | 477 kts | 43° |
| 2026-03-23 08:35 | 18.63768 | -22.87022 | 34999 ft | 477 kts | 43° |
| 2026-03-23 08:35 | 18.68049 | -22.81735 | 34999 ft | 477 kts | 43° |
| 2026-03-23 08:36 | 18.72326 | -22.76450 | 34999 ft | 477 kts | 43° |
| 2026-03-23 08:36 | 18.76631 | -22.71124 | 34999 ft | 477 kts | 43° |
| 2026-03-23 08:37 | 18.80921 | -22.65813 | 34999 ft | 476 kts | 43° |
| 2026-03-23 08:37 | 18.85197 | -22.60515 | 34999 ft | 476 kts | 43° |
| 2026-03-23 08:38 | 18.89501 | -22.55177 | 34999 ft | 476 kts | 43° |
| 2026-03-23 08:38 | 18.93763 | -22.49887 | 34999 ft | 476 kts | 43° |
| 2026-03-23 08:39 | 18.98056 | -22.44554 | 34999 ft | 476 kts | 43° |
| 2026-03-23 08:39 | 19.02334 | -22.39235 | 34999 ft | 476 kts | 43° |
| 2026-03-23 08:40 | 19.06605 | -22.33920 | 34996 ft | 476 kts | 43° |
| 2026-03-23 08:40 | 19.10873 | -22.28605 | 35000 ft | 477 kts | 43° |
| 2026-03-23 08:41 | 19.15138 | -22.23287 | 34999 ft | 477 kts | 43° |
| 2026-03-23 08:41 | 19.19434 | -22.17928 | 34999 ft | 476 kts | 43° |
| 2026-03-23 08:42 | 19.23710 | -22.12587 | 34999 ft | 476 kts | 43° |
| 2026-03-23 08:42 | 19.27958 | -22.07278 | 34999 ft | 476 kts | 43° |
| 2026-03-23 08:43 | 19.32226 | -22.01938 | 34999 ft | 476 kts | 43° |
| 2026-03-23 08:43 | 19.36490 | -21.96600 | 35000 ft | 476 kts | 43° |
| 2026-03-23 08:44 | 19.40761 | -21.91247 | 35000 ft | 476 kts | 43° |
| 2026-03-23 08:44 | 19.45015 | -21.85929 | 35004 ft | 466 kts | 45° |
| 2026-03-23 08:45 | 19.49162 | -21.80712 | 35000 ft | 464 kts | 45° |
| 2026-03-23 08:45 | 19.53312 | -21.75491 | 35000 ft | 463 kts | 45° |
| 2026-03-23 08:46 | 19.57428 | -21.70313 | 34999 ft | 463 kts | 45° |
| 2026-03-23 08:46 | 19.61590 | -21.65074 | 34999 ft | 463 kts | 45° |
| 2026-03-23 08:47 | 19.65709 | -21.59884 | 34999 ft | 463 kts | 45° |
| 2026-03-23 08:47 | 19.69862 | -21.54647 | 34999 ft | 463 kts | 45° |
| 2026-03-23 08:48 | 19.73976 | -21.49455 | 34999 ft | 463 kts | 45° |
| 2026-03-23 08:48 | 19.78131 | -21.44206 | 34999 ft | 463 kts | 45° |
| 2026-03-23 08:49 | 19.82250 | -21.38998 | 34999 ft | 463 kts | 45° |
| 2026-03-23 08:49 | 19.86400 | -21.33747 | 34997 ft | 463 kts | 45° |
| 2026-03-23 08:50 | 19.90526 | -21.28522 | 34999 ft | 463 kts | 45° |
| 2026-03-23 08:50 | 19.94630 | -21.23320 | 34999 ft | 463 kts | 45° |
| 2026-03-23 08:51 | 19.98771 | -21.18066 | 35000 ft | 463 kts | 45° |
| 2026-03-23 08:51 | 20.02895 | -21.12830 | 35000 ft | 463 kts | 45° |
| 2026-03-23 08:52 | 20.07028 | -21.07576 | 35000 ft | 463 kts | 45° |
| 2026-03-23 08:52 | 20.11152 | -21.02329 | 35000 ft | 463 kts | 45° |
| 2026-03-23 08:53 | 20.15259 | -20.97100 | 35000 ft | 463 kts | 45° |
| 2026-03-23 08:53 | 20.19375 | -20.91856 | 34999 ft | 463 kts | 45° |
| 2026-03-23 08:54 | 20.23497 | -20.86598 | 34999 ft | 463 kts | 45° |
| 2026-03-23 08:54 | 20.27619 | -20.81337 | 34999 ft | 463 kts | 45° |
| 2026-03-23 08:55 | 20.31746 | -20.76124 | 34999 ft | 462 kts | 43° |
| 2026-03-23 08:55 | 20.36237 | -20.71328 | 34999 ft | 457 kts | 36° |
| 2026-03-23 08:56 | 20.41171 | -20.67147 | 34999 ft | 452 kts | 30° |
| 2026-03-23 08:56 | 20.46462 | -20.63564 | 35000 ft | 450 kts | 25° |
| 2026-03-23 08:57 | 20.51814 | -20.60162 | 34999 ft | 450 kts | 25° |
| 2026-03-23 08:57 | 20.57169 | -20.56751 | 34999 ft | 450 kts | 25° |
| 2026-03-23 08:58 | 20.62520 | -20.53330 | 34999 ft | 450 kts | 25° |
| 2026-03-23 08:58 | 20.67848 | -20.49918 | 34999 ft | 450 kts | 25° |
| 2026-03-23 08:59 | 20.73187 | -20.46495 | 34999 ft | 450 kts | 25° |
| 2026-03-23 08:59 | 20.78556 | -20.43041 | 34990 ft | 453 kts | 25° |
| 2026-03-23 09:00 | 20.83964 | -20.39570 | 34968 ft | 456 kts | 25° |
| 2026-03-23 09:00 | 20.89392 | -20.36083 | 34954 ft | 456 kts | 25° |
| 2026-03-23 09:01 | 20.94810 | -20.32597 | 34948 ft | 456 kts | 25° |
| 2026-03-23 09:01 | 21.00217 | -20.29115 | 34947 ft | 456 kts | 25° |
| 2026-03-23 09:02 | 21.05649 | -20.25615 | 34947 ft | 456 kts | 25° |
| 2026-03-23 09:02 | 21.11068 | -20.22119 | 34947 ft | 456 kts | 25° |
| 2026-03-23 09:03 | 21.16485 | -20.18621 | 34947 ft | 456 kts | 25° |
| 2026-03-23 09:03 | 21.21923 | -20.15107 | 34946 ft | 456 kts | 25° |
| 2026-03-23 09:04 | 21.27313 | -20.11621 | 34946 ft | 456 kts | 25° |
| 2026-03-23 09:04 | 21.32748 | -20.08102 | 34946 ft | 456 kts | 25° |
| 2026-03-23 09:05 | 21.38167 | -20.04591 | 34946 ft | 456 kts | 25° |
| 2026-03-23 09:05 | 21.43578 | -20.01082 | 34946 ft | 456 kts | 25° |
| 2026-03-23 09:06 | 21.48978 | -19.97578 | 34946 ft | 456 kts | 25° |
| 2026-03-23 09:06 | 21.54412 | -19.94047 | 34946 ft | 456 kts | 25° |
| 2026-03-23 09:07 | 21.59798 | -19.90546 | 34946 ft | 456 kts | 25° |
| 2026-03-23 09:07 | 21.65227 | -19.87013 | 34946 ft | 456 kts | 25° |
| 2026-03-23 09:08 | 21.70606 | -19.83509 | 34946 ft | 456 kts | 25° |
| 2026-03-23 09:08 | 21.75926 | -19.80042 | 34946 ft | 456 kts | 25° |
| 2026-03-23 09:09 | 21.81311 | -19.76528 | 34946 ft | 456 kts | 25° |
| 2026-03-23 09:09 | 21.86736 | -19.72986 | 34946 ft | 456 kts | 25° |
| 2026-03-23 09:10 | 21.92116 | -19.69470 | 34946 ft | 456 kts | 25° |
| 2026-03-23 09:10 | 21.97525 | -19.65932 | 34946 ft | 456 kts | 25° |
| 2026-03-23 09:11 | 22.02955 | -19.62378 | 34946 ft | 456 kts | 25° |
| 2026-03-23 09:11 | 22.08347 | -19.58844 | 34946 ft | 456 kts | 25° |
| 2026-03-23 09:12 | 22.13733 | -19.55306 | 34947 ft | 456 kts | 25° |
| 2026-03-23 09:12 | 22.19147 | -19.51748 | 34947 ft | 456 kts | 25° |
| 2026-03-23 09:13 | 22.24525 | -19.48211 | 34947 ft | 456 kts | 25° |
| 2026-03-23 09:13 | 22.29941 | -19.44647 | 34947 ft | 456 kts | 25° |
| 2026-03-23 09:14 | 22.35339 | -19.41092 | 34946 ft | 456 kts | 25° |
| 2026-03-23 09:14 | 22.40702 | -19.37568 | 34964 ft | 445 kts | 26° |
| 2026-03-23 09:15 | 22.43295 | -19.35857 | 34959 ft | 434 kts | 26° |
| 2026-03-23 09:15 | 22.45858 | -19.34160 | 34961 ft | 432 kts | 27° |
| 2026-03-23 09:15 | 22.50971 | -19.30780 | 34967 ft | 432 kts | 27° |
| 2026-03-23 09:16 | 22.56084 | -19.27400 | 34970 ft | 432 kts | 27° |
| 2026-03-23 09:16 | 22.61163 | -19.24041 | 34971 ft | 431 kts | 27° |
| 2026-03-23 09:17 | 22.66283 | -19.20651 | 34971 ft | 431 kts | 27° |
| 2026-03-23 09:17 | 22.71381 | -19.17272 | 34971 ft | 431 kts | 27° |
| 2026-03-23 09:18 | 22.76467 | -19.13899 | 34971 ft | 431 kts | 27° |
| 2026-03-23 09:18 | 22.81592 | -19.10496 | 34971 ft | 431 kts | 27° |
| 2026-03-23 09:19 | 22.86670 | -19.07122 | 34971 ft | 431 kts | 27° |
| 2026-03-23 09:19 | 22.91760 | -19.03737 | 34971 ft | 431 kts | 27° |
| 2026-03-23 09:20 | 22.96891 | -19.00321 | 34971 ft | 431 kts | 27° |
| 2026-03-23 09:20 | 23.01956 | -18.96947 | 34971 ft | 431 kts | 27° |
| 2026-03-23 09:21 | 23.07051 | -18.93549 | 34971 ft | 431 kts | 27° |
| 2026-03-23 09:21 | 23.12174 | -18.90130 | 34972 ft | 431 kts | 27° |
| 2026-03-23 09:22 | 23.17258 | -18.86733 | 34971 ft | 431 kts | 27° |
| 2026-03-23 09:22 | 23.22345 | -18.83332 | 34971 ft | 431 kts | 27° |
| 2026-03-23 09:23 | 23.27436 | -18.79925 | 34971 ft | 431 kts | 27° |
| 2026-03-23 09:23 | 23.32521 | -18.76518 | 34971 ft | 431 kts | 27° |
| 2026-03-23 09:24 | 23.37621 | -18.73099 | 34971 ft | 431 kts | 27° |
| 2026-03-23 09:24 | 23.42697 | -18.69693 | 34971 ft | 431 kts | 27° |
| 2026-03-23 09:25 | 23.47813 | -18.66256 | 34971 ft | 431 kts | 27° |
| 2026-03-23 09:25 | 23.52886 | -18.62845 | 34971 ft | 431 kts | 27° |
| 2026-03-23 09:26 | 23.57973 | -18.59422 | 34971 ft | 431 kts | 27° |
| 2026-03-23 09:27 | 23.65612 | -18.54276 | 34971 ft | 431 kts | 27° |
| 2026-03-23 09:27 | 23.70700 | -18.50844 | 34971 ft | 431 kts | 27° |
| 2026-03-23 09:28 | 23.75750 | -18.47434 | 34971 ft | 431 kts | 27° |
| 2026-03-23 09:28 | 23.80834 | -18.43998 | 34971 ft | 431 kts | 27° |
| 2026-03-23 09:29 | 23.85911 | -18.40564 | 34971 ft | 431 kts | 27° |
| 2026-03-23 09:29 | 23.91011 | -18.37112 | 34971 ft | 431 kts | 27° |
| 2026-03-23 09:30 | 23.96083 | -18.33683 | 34960 ft | 428 kts | 28° |
| 2026-03-23 09:30 | 24.01115 | -18.30264 | 34937 ft | 428 kts | 28° |
| 2026-03-23 09:31 | 24.06159 | -18.26836 | 34925 ft | 428 kts | 28° |
| 2026-03-23 09:31 | 24.11217 | -18.23398 | 34922 ft | 428 kts | 28° |
| 2026-03-23 09:32 | 24.16251 | -18.19973 | 34919 ft | 428 kts | 28° |
| 2026-03-23 09:32 | 24.21304 | -18.16532 | 34918 ft | 428 kts | 28° |
| 2026-03-23 09:33 | 24.26329 | -18.13108 | 34918 ft | 428 kts | 28° |
| 2026-03-23 09:33 | 24.31367 | -18.09671 | 34918 ft | 428 kts | 28° |
| 2026-03-23 09:34 | 24.36395 | -18.06239 | 34918 ft | 428 kts | 28° |
| 2026-03-23 09:34 | 24.41452 | -18.02783 | 34918 ft | 428 kts | 28° |
| 2026-03-23 09:35 | 24.46498 | -17.99331 | 34918 ft | 428 kts | 28° |
| 2026-03-23 09:35 | 24.51510 | -17.95899 | 34918 ft | 428 kts | 28° |
| 2026-03-23 09:36 | 24.56561 | -17.92438 | 34918 ft | 428 kts | 28° |
| 2026-03-23 09:36 | 24.61597 | -17.88983 | 34918 ft | 428 kts | 28° |
| 2026-03-23 09:37 | 24.66632 | -17.85526 | 34918 ft | 428 kts | 28° |
| 2026-03-23 09:37 | 24.71662 | -17.82069 | 34918 ft | 428 kts | 28° |
| 2026-03-23 09:38 | 24.76701 | -17.78602 | 34918 ft | 428 kts | 28° |
| 2026-03-23 09:38 | 24.81709 | -17.75154 | 34918 ft | 428 kts | 28° |
| 2026-03-23 09:39 | 24.86734 | -17.71692 | 34918 ft | 428 kts | 28° |
| 2026-03-23 09:39 | 24.91787 | -17.68206 | 34918 ft | 428 kts | 28° |
| 2026-03-23 09:40 | 24.96792 | -17.64751 | 34918 ft | 428 kts | 28° |
| 2026-03-23 09:40 | 25.01826 | -17.61269 | 34918 ft | 428 kts | 28° |
| 2026-03-23 09:41 | 25.06851 | -17.57782 | 34918 ft | 428 kts | 28° |
| 2026-03-23 09:41 | 25.11894 | -17.54282 | 34919 ft | 428 kts | 28° |
| 2026-03-23 09:42 | 25.16904 | -17.50804 | 34918 ft | 428 kts | 28° |
| 2026-03-23 09:42 | 25.21915 | -17.47321 | 34918 ft | 428 kts | 28° |
| 2026-03-23 09:43 | 25.26946 | -17.43821 | 34918 ft | 428 kts | 28° |
| 2026-03-23 09:43 | 25.31955 | -17.40334 | 34918 ft | 428 kts | 28° |
| 2026-03-23 09:44 | 25.36971 | -17.36837 | 34918 ft | 428 kts | 28° |
| 2026-03-23 09:44 | 25.41997 | -17.33330 | 34918 ft | 428 kts | 28° |
| 2026-03-23 09:45 | 25.46987 | -17.29864 | 34923 ft | 415 kts | 31° |
| 2026-03-23 09:45 | 25.51798 | -17.26496 | 34919 ft | 411 kts | 31° |
| 2026-03-23 09:46 | 25.56625 | -17.23113 | 34918 ft | 411 kts | 31° |
| 2026-03-23 09:46 | 25.61433 | -17.19743 | 34918 ft | 411 kts | 31° |
| 2026-03-23 09:47 | 25.66278 | -17.16346 | 34918 ft | 411 kts | 31° |
| 2026-03-23 09:47 | 25.71068 | -17.12984 | 34918 ft | 411 kts | 31° |
| 2026-03-23 09:48 | 25.75909 | -17.09584 | 34918 ft | 411 kts | 31° |
| 2026-03-23 09:48 | 25.80712 | -17.06207 | 34918 ft | 411 kts | 31° |
| 2026-03-23 09:49 | 25.85517 | -17.02825 | 34918 ft | 411 kts | 31° |
| 2026-03-23 09:49 | 25.90328 | -16.99435 | 34918 ft | 411 kts | 31° |
| 2026-03-23 09:50 | 25.95150 | -16.96036 | 34918 ft | 411 kts | 31° |
| 2026-03-23 09:50 | 25.99949 | -16.92648 | 34918 ft | 411 kts | 31° |
| 2026-03-23 09:51 | 26.04770 | -16.89243 | 34918 ft | 411 kts | 31° |
| 2026-03-23 09:51 | 26.09560 | -16.85855 | 34918 ft | 411 kts | 31° |
| 2026-03-23 09:52 | 26.14421 | -16.82413 | 34919 ft | 411 kts | 31° |
| 2026-03-23 09:52 | 26.19243 | -16.78995 | 34918 ft | 411 kts | 31° |
| 2026-03-23 09:53 | 26.24023 | -16.75609 | 34918 ft | 411 kts | 31° |
| 2026-03-23 09:53 | 26.28856 | -16.72186 | 34918 ft | 411 kts | 31° |
| 2026-03-23 09:54 | 26.33663 | -16.68778 | 34918 ft | 411 kts | 31° |
| 2026-03-23 09:54 | 26.38475 | -16.65364 | 34918 ft | 411 kts | 31° |
| 2026-03-23 09:55 | 26.43270 | -16.61959 | 34918 ft | 411 kts | 31° |
| 2026-03-23 09:55 | 26.48063 | -16.58552 | 34918 ft | 411 kts | 31° |
| 2026-03-23 09:56 | 26.52885 | -16.55121 | 34918 ft | 411 kts | 31° |
| 2026-03-23 09:56 | 26.57674 | -16.51710 | 34918 ft | 411 kts | 31° |
| 2026-03-23 09:57 | 26.62486 | -16.48279 | 34918 ft | 411 kts | 31° |
| 2026-03-23 09:57 | 26.67276 | -16.44861 | 34918 ft | 411 kts | 31° |
| 2026-03-23 09:58 | 26.72087 | -16.41422 | 34918 ft | 411 kts | 31° |
| 2026-03-23 09:58 | 26.76872 | -16.38000 | 34918 ft | 411 kts | 31° |
| 2026-03-23 09:59 | 26.81687 | -16.34553 | 34918 ft | 411 kts | 31° |
| 2026-03-23 09:59 | 26.86480 | -16.31119 | 34918 ft | 411 kts | 31° |
| 2026-03-23 10:00 | 26.93753 | -16.25908 | 34875 ft | 422 kts | 33° |
| 2026-03-23 10:00 | 26.98714 | -16.22322 | 34842 ft | 432 kts | 33° |
| 2026-03-23 10:01 | 27.03806 | -16.18645 | 34822 ft | 440 kts | 33° |
| 2026-03-23 10:01 | 27.08957 | -16.14925 | 34813 ft | 441 kts | 33° |
| 2026-03-23 10:02 | 27.14098 | -16.11211 | 34809 ft | 441 kts | 33° |
| 2026-03-23 10:02 | 27.19224 | -16.07504 | 34808 ft | 441 kts | 33° |
| 2026-03-23 10:03 | 27.24370 | -16.03778 | 34808 ft | 441 kts | 33° |
| 2026-03-23 10:03 | 27.29510 | -16.00054 | 34808 ft | 441 kts | 33° |
| 2026-03-23 10:04 | 27.34666 | -15.96313 | 34808 ft | 441 kts | 33° |
| 2026-03-23 10:04 | 27.39813 | -15.92575 | 34808 ft | 441 kts | 33° |
| 2026-03-23 10:05 | 27.44913 | -15.88867 | 34808 ft | 441 kts | 33° |
| 2026-03-23 10:05 | 27.50066 | -15.85116 | 34808 ft | 441 kts | 33° |
| 2026-03-23 10:06 | 27.55216 | -15.81364 | 34808 ft | 441 kts | 33° |
| 2026-03-23 10:06 | 27.60324 | -15.77638 | 34808 ft | 441 kts | 33° |
| 2026-03-23 10:07 | 27.65453 | -15.73894 | 34808 ft | 441 kts | 33° |
| 2026-03-23 10:07 | 27.70611 | -15.70124 | 34808 ft | 441 kts | 33° |
| 2026-03-23 10:08 | 27.75743 | -15.66364 | 34808 ft | 441 kts | 33° |
| 2026-03-23 10:08 | 27.80855 | -15.62614 | 34808 ft | 441 kts | 33° |
| 2026-03-23 10:09 | 27.85987 | -15.58848 | 34808 ft | 441 kts | 33° |
| 2026-03-23 10:09 | 27.91127 | -15.55073 | 34808 ft | 441 kts | 33° |
| 2026-03-23 10:10 | 27.96247 | -15.51310 | 34808 ft | 441 kts | 33° |
| 2026-03-23 10:10 | 28.01374 | -15.47537 | 34808 ft | 441 kts | 33° |
| 2026-03-23 10:11 | 28.06509 | -15.43753 | 34808 ft | 441 kts | 33° |
| 2026-03-23 10:11 | 28.11617 | -15.39969 | 34808 ft | 441 kts | 33° |
| 2026-03-23 10:12 | 28.16728 | -15.36169 | 34808 ft | 441 kts | 33° |
| 2026-03-23 10:12 | 28.21855 | -15.32356 | 34808 ft | 441 kts | 33° |
| 2026-03-23 10:13 | 28.26954 | -15.28560 | 34808 ft | 441 kts | 33° |
| 2026-03-23 10:13 | 28.32064 | -15.24751 | 34808 ft | 441 kts | 33° |
| 2026-03-23 10:14 | 28.37181 | -15.20933 | 34808 ft | 441 kts | 33° |
| 2026-03-23 10:14 | 28.42290 | -15.17118 | 34808 ft | 441 kts | 33° |
| 2026-03-23 10:15 | 28.47292 | -15.13407 | 34919 ft | 415 kts | 34° |
| 2026-03-23 10:15 | 28.52063 | -15.09861 | 34955 ft | 411 kts | 34° |
| 2026-03-23 10:16 | 28.56836 | -15.06287 | 35026 ft | 411 kts | 34° |
| 2026-03-23 10:16 | 28.61595 | -15.02697 | 35129 ft | 411 kts | 34° |
| 2026-03-23 10:17 | 28.66326 | -14.99100 | 35270 ft | 410 kts | 34° |
| 2026-03-23 10:17 | 28.71041 | -14.95490 | 35449 ft | 410 kts | 34° |
| 2026-03-23 10:18 | 28.73378 | -14.93690 | 35552 ft | 410 kts | 35° |
| 2026-03-23 10:18 | 28.75745 | -14.91861 | 35666 ft | 409 kts | 35° |
| 2026-03-23 10:18 | 28.78103 | -14.90032 | 35789 ft | 409 kts | 35° |
| 2026-03-23 10:18 | 28.80425 | -14.88225 | 35919 ft | 409 kts | 35° |
| 2026-03-23 10:19 | 28.82781 | -14.86385 | 36058 ft | 408 kts | 35° |
| 2026-03-23 10:19 | 28.85118 | -14.84553 | 36205 ft | 407 kts | 35° |
| 2026-03-23 10:19 | 28.87429 | -14.82735 | 36351 ft | 407 kts | 35° |
| 2026-03-23 10:19 | 28.89738 | -14.80913 | 36501 ft | 406 kts | 35° |
| 2026-03-23 10:20 | 28.92041 | -14.79090 | 36648 ft | 405 kts | 35° |
| 2026-03-23 10:20 | 28.94362 | -14.77246 | 36795 ft | 404 kts | 35° |
| 2026-03-23 10:20 | 28.96630 | -14.75440 | 36940 ft | 402 kts | 36° |
| 2026-03-23 10:20 | 28.98910 | -14.73617 | 37086 ft | 401 kts | 36° |
| 2026-03-23 10:21 | 29.01206 | -14.71777 | 37231 ft | 400 kts | 36° |
| 2026-03-23 10:21 | 29.03464 | -14.69961 | 37371 ft | 399 kts | 36° |
| 2026-03-23 10:21 | 29.05725 | -14.68138 | 37511 ft | 398 kts | 36° |
| 2026-03-23 10:21 | 29.07961 | -14.66329 | 37650 ft | 397 kts | 36° |
| 2026-03-23 10:22 | 29.10195 | -14.64518 | 37786 ft | 396 kts | 36° |
| 2026-03-23 10:22 | 29.12448 | -14.62685 | 37932 ft | 394 kts | 36° |
| 2026-03-23 10:22 | 29.14677 | -14.60868 | 38080 ft | 393 kts | 36° |
| 2026-03-23 10:22 | 29.16878 | -14.59068 | 38227 ft | 392 kts | 36° |
| 2026-03-23 10:23 | 29.19089 | -14.57255 | 38369 ft | 391 kts | 36° |
| 2026-03-23 10:23 | 29.21275 | -14.55459 | 38504 ft | 389 kts | 36° |
| 2026-03-23 10:23 | 29.23459 | -14.53659 | 38643 ft | 388 kts | 36° |
| 2026-03-23 10:23 | 29.25639 | -14.51859 | 38777 ft | 387 kts | 36° |
| 2026-03-23 10:24 | 29.27817 | -14.50056 | 38905 ft | 385 kts | 36° |
| 2026-03-23 10:24 | 29.29975 | -14.48265 | 39030 ft | 384 kts | 36° |
| 2026-03-23 10:24 | 29.32121 | -14.46480 | 39153 ft | 383 kts | 36° |
| 2026-03-23 10:24 | 29.34278 | -14.44682 | 39272 ft | 381 kts | 36° |
| 2026-03-23 10:25 | 29.36405 | -14.42905 | 39387 ft | 380 kts | 36° |
| 2026-03-23 10:25 | 29.38513 | -14.41140 | 39500 ft | 379 kts | 36° |
| 2026-03-23 10:25 | 29.40632 | -14.39362 | 39608 ft | 377 kts | 36° |
| 2026-03-23 10:25 | 29.42745 | -14.37586 | 39711 ft | 376 kts | 37° |
| 2026-03-23 10:26 | 29.46922 | -14.34063 | 39904 ft | 373 kts | 37° |
| 2026-03-23 10:26 | 29.51089 | -14.30536 | 40105 ft | 370 kts | 37° |
| 2026-03-23 10:27 | 29.55190 | -14.27052 | 40287 ft | 368 kts | 37° |
| 2026-03-23 10:27 | 29.59280 | -14.23565 | 40457 ft | 365 kts | 37° |
| 2026-03-23 10:28 | 29.63320 | -14.20110 | 40609 ft | 362 kts | 37° |
| 2026-03-23 10:28 | 29.67309 | -14.16687 | 40746 ft | 359 kts | 37° |
| 2026-03-23 10:29 | 29.71294 | -14.13257 | 40861 ft | 357 kts | 37° |
| 2026-03-23 10:29 | 29.75264 | -14.09830 | 40831 ft | 359 kts | 37° |
| 2026-03-23 10:30 | 29.79311 | -14.06331 | 40209 ft | 380 kts | 41° |
| 2026-03-23 10:30 | 29.81465 | -14.04447 | 39523 ft | 401 kts | 40° |
| 2026-03-23 10:30 | 29.83789 | -14.02600 | 39111 ft | 416 kts | 30° |
| 2026-03-23 10:31 | 29.89011 | -13.99684 | 38939 ft | 422 kts | 35° |
| 2026-03-23 10:31 | 29.91530 | -13.97823 | 38692 ft | 430 kts | 36° |
| 2026-03-23 10:31 | 29.94040 | -13.95970 | 38448 ft | 436 kts | 35° |
| 2026-03-23 10:32 | 29.96621 | -13.94121 | 38200 ft | 438 kts | 34° |
| 2026-03-23 10:32 | 29.99225 | -13.92303 | 37950 ft | 438 kts | 34° |
| 2026-03-23 10:32 | 30.01841 | -13.90506 | 37700 ft | 439 kts | 34° |
| 2026-03-23 10:32 | 30.04475 | -13.88714 | 37450 ft | 439 kts | 33° |
| 2026-03-23 10:33 | 30.07110 | -13.86931 | 37200 ft | 439 kts | 33° |
| 2026-03-23 10:33 | 30.09739 | -13.85154 | 36950 ft | 439 kts | 33° |
| 2026-03-23 10:33 | 30.12366 | -13.83382 | 36704 ft | 439 kts | 33° |
| 2026-03-23 10:33 | 30.14973 | -13.81625 | 36455 ft | 439 kts | 33° |
| 2026-03-23 10:34 | 30.17604 | -13.79848 | 36205 ft | 439 kts | 33° |
| 2026-03-23 10:34 | 30.20252 | -13.78060 | 35955 ft | 439 kts | 33° |
| 2026-03-23 10:34 | 30.22889 | -13.76278 | 35704 ft | 439 kts | 33° |
| 2026-03-23 10:34 | 30.25517 | -13.74503 | 35455 ft | 440 kts | 33° |
| 2026-03-23 10:35 | 30.28140 | -13.72729 | 35208 ft | 440 kts | 33° |
| 2026-03-23 10:35 | 30.30793 | -13.70933 | 34965 ft | 441 kts | 33° |
| 2026-03-23 10:35 | 30.36059 | -13.67366 | 34891 ft | 441 kts | 33° |
| 2026-03-23 10:36 | 30.41347 | -13.63781 | 34890 ft | 441 kts | 33° |
| 2026-03-23 10:36 | 30.46651 | -13.60181 | 34890 ft | 441 kts | 33° |
| 2026-03-23 10:37 | 30.51987 | -13.56628 | 34890 ft | 442 kts | 31° |
| 2026-03-23 10:37 | 30.57390 | -13.53324 | 34890 ft | 442 kts | 31° |
| 2026-03-23 10:38 | 30.62859 | -13.50006 | 34889 ft | 443 kts | 31° |
| 2026-03-23 10:38 | 30.68304 | -13.46696 | 34889 ft | 443 kts | 31° |
| 2026-03-23 10:39 | 30.73755 | -13.43374 | 34890 ft | 443 kts | 31° |
| 2026-03-23 10:39 | 30.79203 | -13.40051 | 34890 ft | 443 kts | 31° |
| 2026-03-23 10:40 | 30.84639 | -13.36730 | 34890 ft | 442 kts | 31° |
| 2026-03-23 10:40 | 30.90066 | -13.33408 | 34890 ft | 443 kts | 31° |
| 2026-03-23 10:41 | 30.95493 | -13.30086 | 34890 ft | 442 kts | 31° |
| 2026-03-23 10:41 | 31.00945 | -13.26742 | 34890 ft | 442 kts | 31° |
| 2026-03-23 10:42 | 31.06387 | -13.23400 | 34890 ft | 442 kts | 31° |
| 2026-03-23 10:42 | 31.11807 | -13.20067 | 34889 ft | 442 kts | 31° |
| 2026-03-23 10:43 | 31.17246 | -13.16718 | 34890 ft | 442 kts | 31° |
| 2026-03-23 10:43 | 31.22685 | -13.13364 | 34890 ft | 442 kts | 31° |
| 2026-03-23 10:44 | 31.28112 | -13.10013 | 34890 ft | 442 kts | 31° |
| 2026-03-23 10:44 | 31.33537 | -13.06661 | 34889 ft | 442 kts | 31° |
| 2026-03-23 10:45 | 31.38973 | -13.03289 | 34876 ft | 448 kts | 31° |
| 2026-03-23 10:45 | 31.44536 | -12.99840 | 34890 ft | 458 kts | 31° |
| 2026-03-23 10:46 | 31.50185 | -12.96338 | 34890 ft | 461 kts | 31° |
| 2026-03-23 10:46 | 31.55846 | -12.92821 | 34890 ft | 461 kts | 30° |
| 2026-03-23 10:47 | 31.61487 | -12.89312 | 34889 ft | 461 kts | 31° |
| 2026-03-23 10:47 | 31.67174 | -12.85768 | 34890 ft | 461 kts | 30° |
| 2026-03-23 10:48 | 31.72818 | -12.82245 | 34890 ft | 461 kts | 31° |
| 2026-03-23 10:48 | 31.78502 | -12.78693 | 34890 ft | 461 kts | 31° |
| 2026-03-23 10:49 | 31.84164 | -12.75149 | 34890 ft | 461 kts | 30° |
| 2026-03-23 10:49 | 31.89823 | -12.71602 | 34889 ft | 461 kts | 30° |
| 2026-03-23 10:50 | 31.95479 | -12.68052 | 34890 ft | 461 kts | 31° |
| 2026-03-23 10:50 | 32.01120 | -12.64508 | 34890 ft | 461 kts | 30° |
| 2026-03-23 10:51 | 32.06777 | -12.60947 | 34890 ft | 461 kts | 30° |
| 2026-03-23 10:51 | 32.12412 | -12.57396 | 34889 ft | 461 kts | 30° |
| 2026-03-23 10:52 | 32.18043 | -12.53844 | 34889 ft | 461 kts | 30° |
| 2026-03-23 10:52 | 32.23691 | -12.50274 | 34889 ft | 461 kts | 30° |
| 2026-03-23 10:53 | 32.29328 | -12.46706 | 34890 ft | 461 kts | 30° |
| 2026-03-23 10:53 | 32.34969 | -12.43131 | 34891 ft | 461 kts | 31° |
| 2026-03-23 10:54 | 32.40621 | -12.39542 | 34889 ft | 461 kts | 30° |
| 2026-03-23 10:54 | 32.46250 | -12.35964 | 34889 ft | 461 kts | 31° |
| 2026-03-23 10:55 | 32.51917 | -12.32357 | 34889 ft | 461 kts | 31° |
| 2026-03-23 10:55 | 32.57533 | -12.28777 | 34890 ft | 461 kts | 31° |
| 2026-03-23 10:56 | 32.63179 | -12.25172 | 34890 ft | 461 kts | 31° |
| 2026-03-23 10:56 | 32.68828 | -12.21560 | 34890 ft | 461 kts | 31° |
| 2026-03-23 10:57 | 32.74462 | -12.17953 | 34890 ft | 461 kts | 31° |
| 2026-03-23 10:57 | 32.80075 | -12.14355 | 34889 ft | 461 kts | 31° |
| 2026-03-23 10:58 | 32.85701 | -12.10743 | 34890 ft | 461 kts | 31° |
| 2026-03-23 10:58 | 32.91352 | -12.07109 | 34890 ft | 461 kts | 31° |
| 2026-03-23 10:59 | 32.96956 | -12.03499 | 34889 ft | 461 kts | 31° |
| 2026-03-23 10:59 | 33.02602 | -11.99858 | 34889 ft | 461 kts | 31° |
| 2026-03-23 11:00 | 33.08212 | -11.96244 | 34906 ft | 452 kts | 32° |
| 2026-03-23 11:00 | 33.13647 | -11.92731 | 34920 ft | 442 kts | 32° |
| 2026-03-23 11:01 | 33.19057 | -11.89218 | 34935 ft | 441 kts | 32° |
| 2026-03-23 11:01 | 33.24425 | -11.85731 | 34942 ft | 441 kts | 32° |
| 2026-03-23 11:02 | 33.29788 | -11.82245 | 34944 ft | 441 kts | 32° |
| 2026-03-23 11:03 | 33.37847 | -11.77001 | 34945 ft | 441 kts | 32° |
| 2026-03-23 11:03 | 33.43224 | -11.73496 | 34945 ft | 441 kts | 32° |
| 2026-03-23 11:04 | 33.48608 | -11.69981 | 34944 ft | 441 kts | 32° |
| 2026-03-23 11:04 | 33.53996 | -11.66459 | 34945 ft | 441 kts | 32° |
| 2026-03-23 11:05 | 33.59372 | -11.62939 | 34944 ft | 441 kts | 32° |
| 2026-03-23 11:05 | 33.64741 | -11.59419 | 34945 ft | 441 kts | 32° |
| 2026-03-23 11:06 | 33.70166 | -11.55856 | 34944 ft | 447 kts | 32° |
| 2026-03-23 11:06 | 33.75562 | -11.52310 | 34944 ft | 441 kts | 32° |
| 2026-03-23 11:07 | 33.80922 | -11.48782 | 34944 ft | 441 kts | 32° |
| 2026-03-23 11:07 | 33.86295 | -11.45239 | 34944 ft | 441 kts | 32° |
| 2026-03-23 11:08 | 33.91663 | -11.41694 | 34945 ft | 441 kts | 32° |
| 2026-03-23 11:08 | 33.97024 | -11.38148 | 34944 ft | 441 kts | 32° |
| 2026-03-23 11:09 | 34.02372 | -11.34606 | 34945 ft | 441 kts | 33° |
| 2026-03-23 11:09 | 34.07766 | -11.31030 | 34945 ft | 441 kts | 33° |
| 2026-03-23 11:10 | 34.13114 | -11.27478 | 34945 ft | 441 kts | 33° |
| 2026-03-23 11:10 | 34.18490 | -11.23902 | 34944 ft | 440 kts | 33° |
| 2026-03-23 11:11 | 34.23839 | -11.20338 | 34945 ft | 440 kts | 33° |
| 2026-03-23 11:11 | 34.29179 | -11.16777 | 34945 ft | 441 kts | 33° |
| 2026-03-23 11:12 | 34.34539 | -11.13195 | 34944 ft | 440 kts | 33° |
| 2026-03-23 11:12 | 34.39866 | -11.09632 | 34944 ft | 440 kts | 33° |
| 2026-03-23 11:13 | 34.45230 | -11.06038 | 34944 ft | 441 kts | 33° |
| 2026-03-23 11:13 | 34.50565 | -11.02458 | 34945 ft | 440 kts | 33° |
| 2026-03-23 11:14 | 34.55895 | -10.98876 | 34944 ft | 440 kts | 33° |
| 2026-03-23 11:14 | 34.61277 | -10.95254 | 34945 ft | 441 kts | 33° |
| 2026-03-23 11:15 | 34.66610 | -10.91659 | 34945 ft | 440 kts | 33° |
| 2026-03-23 11:15 | 34.71983 | -10.88024 | 34942 ft | 448 kts | 32° |
| 2026-03-23 11:16 | 34.77491 | -10.84303 | 34959 ft | 455 kts | 32° |
| 2026-03-23 11:16 | 34.83001 | -10.80577 | 34964 ft | 455 kts | 32° |
| 2026-03-23 11:17 | 34.88531 | -10.76829 | 34967 ft | 455 kts | 32° |
| 2026-03-23 11:17 | 34.94062 | -10.73073 | 34967 ft | 455 kts | 32° |
| 2026-03-23 11:18 | 34.99543 | -10.69346 | 34967 ft | 455 kts | 32° |
| 2026-03-23 11:18 | 35.05086 | -10.65569 | 34967 ft | 455 kts | 32° |
| 2026-03-23 11:19 | 35.10563 | -10.61832 | 34967 ft | 455 kts | 32° |
| 2026-03-23 11:19 | 35.16066 | -10.58070 | 34967 ft | 455 kts | 32° |
| 2026-03-23 11:20 | 35.21579 | -10.54297 | 34968 ft | 455 kts | 32° |
| 2026-03-23 11:20 | 35.27082 | -10.50526 | 34968 ft | 455 kts | 32° |
| 2026-03-23 11:21 | 35.32614 | -10.46726 | 34968 ft | 455 kts | 32° |
| 2026-03-23 11:21 | 35.38085 | -10.42964 | 34968 ft | 455 kts | 32° |
| 2026-03-23 11:22 | 35.43602 | -10.39164 | 34968 ft | 455 kts | 32° |
| 2026-03-23 11:22 | 35.49099 | -10.35371 | 34967 ft | 455 kts | 32° |
| 2026-03-23 11:23 | 35.54626 | -10.31553 | 34968 ft | 455 kts | 32° |
| 2026-03-23 11:23 | 35.60115 | -10.27754 | 34967 ft | 455 kts | 32° |
| 2026-03-23 11:24 | 35.65622 | -10.23937 | 34967 ft | 455 kts | 32° |
| 2026-03-23 11:24 | 35.71098 | -10.20135 | 34967 ft | 455 kts | 32° |
| 2026-03-23 11:25 | 35.76615 | -10.16300 | 34968 ft | 455 kts | 32° |
| 2026-03-23 11:25 | 35.82105 | -10.12478 | 34968 ft | 455 kts | 32° |
| 2026-03-23 11:26 | 35.87595 | -10.08650 | 34967 ft | 455 kts | 32° |
| 2026-03-23 11:26 | 35.93048 | -10.04842 | 34968 ft | 455 kts | 32° |
| 2026-03-23 11:27 | 35.98553 | -10.00993 | 34967 ft | 455 kts | 32° |
| 2026-03-23 11:27 | 36.04051 | -9.97166 | 34968 ft | 455 kts | 32° |
| 2026-03-23 11:28 | 36.09541 | -9.93344 | 34968 ft | 455 kts | 32° |
| 2026-03-23 11:28 | 36.15049 | -9.89504 | 34967 ft | 455 kts | 32° |
| 2026-03-23 11:29 | 36.20898 | -9.86523 | 34966 ft | 461 kts | 16° |
| 2026-03-23 11:29 | 36.27170 | -9.84889 | 34968 ft | 461 kts | 13° |
| 2026-03-23 11:30 | 36.33437 | -9.83352 | 34968 ft | 461 kts | 13° |
| 2026-03-23 11:30 | 36.39613 | -9.81807 | 35167 ft | 438 kts | 14° |
| 2026-03-23 11:30 | 36.42505 | -9.81078 | 35225 ft | 425 kts | 15° |
| 2026-03-23 11:31 | 36.45391 | -9.80339 | 35279 ft | 423 kts | 15° |
| 2026-03-23 11:31 | 36.51135 | -9.78830 | 35409 ft | 422 kts | 15° |
| 2026-03-23 11:32 | 36.56817 | -9.77284 | 35572 ft | 421 kts | 16° |
| 2026-03-23 11:32 | 36.62557 | -9.75769 | 35616 ft | 422 kts | 14° |
| 2026-03-23 11:33 | 36.68329 | -9.74333 | 35538 ft | 423 kts | 15° |
| 2026-03-23 11:33 | 36.71201 | -9.73605 | 35286 ft | 422 kts | 15° |
| 2026-03-23 11:33 | 36.74068 | -9.72873 | 35037 ft | 422 kts | 15° |
| 2026-03-23 11:33 | 36.76931 | -9.72137 | 34787 ft | 422 kts | 15° |
| 2026-03-23 11:34 | 36.79802 | -9.71396 | 34536 ft | 421 kts | 15° |
| 2026-03-23 11:34 | 36.82623 | -9.70666 | 34288 ft | 419 kts | 15° |
| 2026-03-23 11:34 | 36.85471 | -9.69927 | 34036 ft | 416 kts | 15° |
| 2026-03-23 11:34 | 36.88270 | -9.69200 | 33787 ft | 414 kts | 15° |
| 2026-03-23 11:35 | 36.91105 | -9.68462 | 33498 ft | 415 kts | 15° |
| 2026-03-23 11:35 | 36.93918 | -9.67728 | 32974 ft | 417 kts | 15° |
| 2026-03-23 11:35 | 36.96727 | -9.66995 | 32521 ft | 416 kts | 15° |
| 2026-03-23 11:35 | 36.99542 | -9.66259 | 32073 ft | 416 kts | 15° |
| 2026-03-23 11:36 | 37.02380 | -9.65518 | 31595 ft | 414 kts | 15° |
| 2026-03-23 11:36 | 37.05159 | -9.64793 | 31114 ft | 411 kts | 15° |
| 2026-03-23 11:36 | 37.07957 | -9.64062 | 30623 ft | 407 kts | 15° |
| 2026-03-23 11:36 | 37.10704 | -9.63344 | 30139 ft | 403 kts | 15° |
| 2026-03-23 11:37 | 37.13403 | -9.62637 | 29659 ft | 400 kts | 15° |
| 2026-03-23 11:37 | 37.16138 | -9.61921 | 29165 ft | 397 kts | 15° |
| 2026-03-23 11:37 | 37.18806 | -9.61221 | 28688 ft | 393 kts | 15° |
| 2026-03-23 11:37 | 37.21473 | -9.60521 | 28210 ft | 390 kts | 15° |
| 2026-03-23 11:38 | 37.24097 | -9.59832 | 27736 ft | 387 kts | 15° |
| 2026-03-23 11:38 | 37.26694 | -9.59150 | 27260 ft | 384 kts | 15° |
| 2026-03-23 11:38 | 37.29300 | -9.58465 | 26784 ft | 380 kts | 15° |
| 2026-03-23 11:38 | 37.31857 | -9.57791 | 26315 ft | 377 kts | 15° |
| 2026-03-23 11:39 | 37.34427 | -9.57114 | 25845 ft | 374 kts | 15° |
| 2026-03-23 11:39 | 37.36947 | -9.56450 | 25384 ft | 372 kts | 15° |
| 2026-03-23 11:39 | 37.39444 | -9.55791 | 24923 ft | 369 kts | 15° |
| 2026-03-23 11:39 | 37.41957 | -9.55128 | 24457 ft | 367 kts | 15° |
| 2026-03-23 11:40 | 37.44445 | -9.54470 | 23995 ft | 364 kts | 14° |
| 2026-03-23 11:40 | 37.46890 | -9.53824 | 23537 ft | 362 kts | 14° |
| 2026-03-23 11:40 | 37.49335 | -9.53177 | 23079 ft | 360 kts | 14° |
| 2026-03-23 11:40 | 37.51769 | -9.52532 | 22620 ft | 359 kts | 14° |
| 2026-03-23 11:41 | 37.54213 | -9.51885 | 22160 ft | 357 kts | 14° |
| 2026-03-23 11:41 | 37.56623 | -9.51246 | 21707 ft | 355 kts | 14° |
| 2026-03-23 11:41 | 37.58873 | -9.50649 | 21281 ft | 354 kts | 14° |
| 2026-03-23 11:41 | 37.61259 | -9.50015 | 20831 ft | 352 kts | 14° |
| 2026-03-23 11:42 | 37.63658 | -9.49378 | 20375 ft | 351 kts | 14° |
| 2026-03-23 11:42 | 37.66009 | -9.48753 | 19930 ft | 349 kts | 14° |
| 2026-03-23 11:42 | 37.68379 | -9.48122 | 19478 ft | 348 kts | 14° |
| 2026-03-23 11:42 | 37.70741 | -9.47494 | 19027 ft | 347 kts | 14° |
| 2026-03-23 11:43 | 37.73091 | -9.46868 | 18577 ft | 345 kts | 14° |
| 2026-03-23 11:43 | 37.75430 | -9.46244 | 18131 ft | 344 kts | 14° |
| 2026-03-23 11:43 | 37.77745 | -9.45627 | 17686 ft | 343 kts | 14° |
| 2026-03-23 11:43 | 37.80078 | -9.45004 | 17238 ft | 342 kts | 14° |
| 2026-03-23 11:44 | 37.82386 | -9.44388 | 16795 ft | 341 kts | 14° |
| 2026-03-23 11:44 | 37.84693 | -9.43772 | 16353 ft | 340 kts | 13° |
| 2026-03-23 11:44 | 37.87034 | -9.43145 | 15908 ft | 350 kts | 13° |
| 2026-03-23 11:44 | 37.89479 | -9.42486 | 15425 ft | 367 kts | 13° |
| 2026-03-23 11:45 | 37.91971 | -9.41801 | 14930 ft | 368 kts | 14° |
| 2026-03-23 11:45 | 37.94431 | -9.41095 | 14362 ft | 367 kts | 14° |
| 2026-03-23 11:45 | 37.96912 | -9.40376 | 13827 ft | 364 kts | 13° |
| 2026-03-23 11:45 | 37.99369 | -9.39671 | 13339 ft | 360 kts | 13° |
| 2026-03-23 11:46 | 38.01804 | -9.38976 | 12795 ft | 357 kts | 13° |
| 2026-03-23 11:46 | 38.04190 | -9.38295 | 12204 ft | 356 kts | 13° |
| 2026-03-23 11:46 | 38.06600 | -9.37608 | 11658 ft | 352 kts | 13° |
| 2026-03-23 11:46 | 38.08981 | -9.36930 | 11162 ft | 349 kts | 13° |
| 2026-03-23 11:47 | 38.11327 | -9.36261 | 10680 ft | 347 kts | 13° |
| 2026-03-23 11:47 | 38.13658 | -9.35596 | 10208 ft | 346 kts | 13° |
| 2026-03-23 11:47 | 38.15982 | -9.34932 | 10056 ft | 345 kts | 14° |
| 2026-03-23 11:48 | 38.20657 | -9.33595 | 9531 ft | 344 kts | 14° |
| 2026-03-23 11:48 | 38.22984 | -9.32929 | 9077 ft | 341 kts | 14° |
| 2026-03-23 11:48 | 38.25307 | -9.32264 | 8634 ft | 340 kts | 14° |
| 2026-03-23 11:48 | 38.27594 | -9.31608 | 8203 ft | 338 kts | 14° |
| 2026-03-23 11:49 | 38.29861 | -9.30959 | 7780 ft | 337 kts | 14° |
| 2026-03-23 11:49 | 38.32131 | -9.30307 | 7358 ft | 335 kts | 14° |
| 2026-03-23 11:49 | 38.34404 | -9.29654 | 6936 ft | 334 kts | 14° |
| 2026-03-23 11:49 | 38.36681 | -9.29000 | 6516 ft | 332 kts | 14° |
| 2026-03-23 11:50 | 38.38913 | -9.28358 | 6104 ft | 331 kts | 14° |
| 2026-03-23 11:50 | 38.41134 | -9.27720 | 5697 ft | 329 kts | 14° |
| 2026-03-23 11:50 | 38.43374 | -9.27075 | 5287 ft | 328 kts | 13° |
| 2026-03-23 11:50 | 38.45600 | -9.26434 | 4882 ft | 326 kts | 13° |
| 2026-03-23 11:51 | 38.47807 | -9.25798 | 4479 ft | 325 kts | 13° |
| 2026-03-23 11:51 | 38.49991 | -9.25169 | 4081 ft | 323 kts | 13° |
| 2026-03-23 11:51 | 38.52175 | -9.24539 | 3685 ft | 322 kts | 13° |
| 2026-03-23 11:51 | 38.54351 | -9.23911 | 3463 ft | 320 kts | 13° |
| 2026-03-23 11:52 | 38.56529 | -9.23283 | 3440 ft | 317 kts | 13° |
| 2026-03-23 11:52 | 38.58628 | -9.22677 | 3400 ft | 299 kts | 13° |
| 2026-03-23 11:52 | 38.60567 | -9.22193 | 3323 ft | 271 kts | 8° |
| 2026-03-23 11:52 | 38.62389 | -9.21796 | 3180 ft | 260 kts | 14° |
| 2026-03-23 11:53 | 38.64070 | -9.21125 | 2980 ft | 254 kts | 21° |
| 2026-03-23 11:53 | 38.65709 | -9.20277 | 2647 ft | 254 kts | 24° |
| 2026-03-23 11:53 | 38.67305 | -9.19393 | 2317 ft | 245 kts | 24° |
| 2026-03-23 11:53 | 38.68827 | -9.18564 | 1994 ft | 231 kts | 23° |
| 2026-03-23 11:54 | 38.70284 | -9.17787 | 1675 ft | 221 kts | 23° |
| 2026-03-23 11:54 | 38.71658 | -9.17055 | 1400 ft | 210 kts | 23° |
| 2026-03-23 11:54 | 38.72951 | -9.16365 | 1208 ft | 192 kts | 23° |
| 2026-03-23 11:54 | 38.74153 | -9.15722 | 938 ft | 180 kts | 23° |
| 2026-03-23 11:55 | 38.75260 | -9.15130 | 675 ft | 167 kts | 23° |
| 2026-03-23 11:55 | 38.76299 | -9.14573 | 439 ft | 157 kts | 22° |
| 2026-03-23 11:55 | 38.77259 | -9.14059 | 349 ft | 133 kts | 22° |
| 2026-03-23 11:55 | 38.77866 | -9.13737 | 361 ft | 49 kts | 24° |
| 2026-03-23 11:56 | 38.78096 | -9.13623 | 361 ft | 30 kts | 22° |
| 2026-03-23 11:56 | 38.78204 | -9.13475 | 356 ft | 24 kts | 146° |
| 2026-03-23 11:56 | 38.78027 | -9.13416 | 346 ft | 27 kts | 169° |
| 2026-03-23 11:56 | 38.77831 | -9.13363 | 338 ft | 29 kts | 168° |
| 2026-03-23 11:57 | 38.77629 | -9.13320 | 332 ft | 30 kts | 177° |
| 2026-03-23 11:57 | 38.77424 | -9.13276 | 329 ft | 29 kts | 169° |
| 2026-03-23 11:57 | 38.77226 | -9.13231 | 330 ft | 27 kts | 167° |
| 2026-03-23 11:57 | 38.77043 | -9.13181 | 333 ft | 25 kts | 168° |
| 2026-03-23 11:58 | 38.76875 | -9.13137 | 333 ft | 24 kts | 168° |
| 2026-03-23 11:58 | 38.76772 | -9.13091 | 333 ft | 10 kts | 142° |
| 2026-03-23 11:58 | 38.76758 | -9.13020 | 333 ft | 6 kts | 75° |
| 2026-03-23 11:58 | 38.76759 | -9.13014 | 333 ft | 0 kts | 75° |